Time;durP1;ratioP1;P1;durP2;ratioP2;P2;SDS_P1;SDS_P2;PMS_P1;PMS_P2;Temp;Humidity;BMP_temperature;BMP_pressure;BME280_temperature;BME280_humidity;BME280_pressure;Samples;Min_cycle;Max_cycle;Signal;HPM_P1;HPM_P2
2022/07/26 00:01:04;;;;;;;15.57;3.97;;;19.00;99.90;;;;;;5015478;28;20136;-77
2022/07/26 00:03:29;;;;;;;16.00;3.53;;;19.00;99.90;;;;;;5035618;28;20041;-78
2022/07/26 00:05:55;;;;;;;12.98;3.00;;;19.00;99.90;;;;;;5035540;28;20413;-78
2022/07/26 00:08:21;;;;;;;11.40;2.90;;;19.00;99.90;;;;;;5027921;28;20116;-78
2022/07/26 00:10:49;;;;;;;12.95;3.38;;;19.00;99.90;;;;;;5026135;28;20568;-79
2022/07/26 00:13:16;;;;;;;12.73;3.33;;;19.00;99.90;;;;;;5024727;28;20113;-78
2022/07/26 00:15:43;;;;;;;14.23;3.25;;;19.00;99.90;;;;;;5051832;28;20095;-78
2022/07/26 00:18:09;;;;;;;14.55;3.83;;;19.00;99.90;;;;;;5039588;28;20037;-76
2022/07/26 00:20:35;;;;;;;14.48;3.58;;;19.00;99.90;;;;;;5024645;28;20038;-76
2022/07/26 00:23:01;;;;;;;17.23;3.47;;;19.00;99.90;;;;;;5022773;28;20044;-76
2022/07/26 00:25:27;;;;;;;15.13;3.88;;;19.00;99.90;;;;;;5042329;28;20037;-76
2022/07/26 00:27:53;;;;;;;12.30;3.08;;;18.90;99.90;;;;;;5037579;28;20034;-77
2022/07/26 00:30:19;;;;;;;13.65;3.35;;;18.90;99.90;;;;;;5026294;28;20033;-76
2022/07/26 00:32:46;;;;;;;15.85;3.33;;;18.90;99.90;;;;;;5034236;28;20587;-76
2022/07/26 00:35:12;;;;;;;12.48;3.45;;;18.80;99.90;;;;;;5025902;28;20033;-75
2022/07/26 00:37:38;;;;;;;15.48;3.67;;;18.80;99.90;;;;;;5045036;28;20396;-76
2022/07/26 00:40:05;;;;;;;14.50;3.70;;;18.80;99.90;;;;;;5028309;28;20049;-76
2022/07/26 00:42:30;;;;;;;16.08;4.22;;;18.70;99.90;;;;;;5028788;28;20096;-76
2022/07/26 00:44:56;;;;;;;13.70;3.63;;;18.80;99.90;;;;;;5020691;28;20045;-76
2022/07/26 00:47:22;;;;;;;17.27;4.65;;;18.70;99.90;;;;;;5040624;28;20050;-76
2022/07/26 00:49:47;;;;;;;15.23;4.20;;;18.70;99.90;;;;;;5023743;28;20055;-76
2022/07/26 00:52:19;;;;;;;11.95;4.00;;;18.60;99.90;;;;;;5027477;28;20044;-77
2022/07/26 00:54:45;;;;;;;14.32;4.22;;;18.60;99.90;;;;;;5017278;28;20046;-76
2022/07/26 00:57:12;;;;;;;12.98;3.40;;;18.60;99.90;;;;;;5030764;28;20053;-76
2022/07/26 00:59:38;;;;;;;13.50;3.60;;;18.60;99.90;;;;;;5045363;28;20038;-76
2022/07/26 01:02:06;;;;;;;12.15;4.05;;;18.60;99.90;;;;;;5005402;28;20049;-76
2022/07/26 01:04:35;;;;;;;14.50;3.65;;;18.60;99.90;;;;;;5032409;28;20116;-75
2022/07/26 01:07:02;;;;;;;14.23;3.70;;;18.60;99.90;;;;;;5040634;28;20382;-77
2022/07/26 01:09:28;;;;;;;14.02;3.70;;;18.60;99.90;;;;;;5033536;28;20033;-77
2022/07/26 01:11:56;;;;;;;14.57;4.18;;;18.60;99.90;;;;;;5030281;28;20486;-78
2022/07/26 01:14:22;;;;;;;14.50;4.10;;;18.50;99.90;;;;;;5033362;28;20041;-76
2022/07/26 01:16:49;;;;;;;12.32;3.70;;;18.50;99.90;;;;;;5033696;28;20052;-77
2022/07/26 01:19:15;;;;;;;11.30;3.50;;;18.50;99.90;;;;;;5025944;28;20135;-77
2022/07/26 01:21:42;;;;;;;15.73;3.88;;;18.50;99.90;;;;;;5025993;28;20049;-76
2022/07/26 01:24:08;;;;;;;14.38;3.58;;;18.40;99.90;;;;;;5033370;28;20068;-77
2022/07/26 01:26:33;;;;;;;12.48;3.75;;;18.50;99.90;;;;;;5033093;28;20494;-76
2022/07/26 01:29:01;;;;;;;11.60;3.42;;;18.40;99.90;;;;;;5014545;28;20040;-76
2022/07/26 01:31:29;;;;;;;10.88;3.45;;;18.60;99.90;;;;;;5010206;28;20042;-75
2022/07/26 01:33:54;;;;;;;11.80;3.40;;;18.40;99.90;;;;;;5030521;28;20045;-76
2022/07/26 01:36:20;;;;;;;13.57;3.60;;;18.40;99.90;;;;;;5034005;28;20029;-76
2022/07/26 01:38:50;;;;;;;19.38;4.10;;;18.40;99.90;;;;;;5023702;28;20052;-76
2022/07/26 01:41:17;;;;;;;13.88;4.15;;;18.40;99.90;;;;;;5029191;28;20102;-77
2022/07/26 01:43:49;;;;;;;16.00;3.88;;;18.40;99.90;;;;;;5015365;28;20498;-76
2022/07/26 01:46:14;;;;;;;17.10;4.35;;;18.40;99.90;;;;;;5029866;28;20050;-76
2022/07/26 01:48:40;;;;;;;15.32;4.47;;;18.40;99.90;;;;;;5027907;28;20044;-77
2022/07/26 01:51:07;;;;;;;13.70;3.90;;;18.30;99.90;;;;;;5020128;28;20512;-77
2022/07/26 01:53:33;;;;;;;14.40;3.65;;;18.40;99.90;;;;;;5017936;28;20080;-77
2022/07/26 01:55:59;;;;;;;13.57;3.55;;;18.30;99.90;;;;;;5020382;28;20046;-77
2022/07/26 01:58:29;;;;;;;12.63;4.00;;;18.30;99.90;;;;;;5004885;28;20049;-77
2022/07/26 02:00:54;;;;;;;15.38;4.10;;;18.30;99.90;;;;;;5019661;28;20046;-77
2022/07/26 02:03:23;;;;;;;17.35;4.22;;;18.30;99.90;;;;;;5023792;28;20037;-77
2022/07/26 02:05:49;;;;;;;21.33;4.60;;;18.20;99.90;;;;;;5033217;28;20087;-76
2022/07/26 02:08:14;;;;;;;12.20;3.60;;;18.20;99.90;;;;;;5036545;28;20037;-76
2022/07/26 02:13:24;;;;;;;14.82;4.13;;;18.20;99.90;;;;;;5019979;28;20048;-77
2022/07/26 02:15:49;;;;;;;14.65;4.03;;;18.20;99.90;;;;;;5031154;28;20042;-76
2022/07/26 02:18:15;;;;;;;12.95;3.70;;;18.10;99.90;;;;;;5009801;28;20030;-77
2022/07/26 02:20:43;;;;;;;16.40;3.92;;;18.10;99.90;;;;;;5019950;28;20038;-77
2022/07/26 02:23:10;;;;;;;12.70;4.20;;;18.10;99.90;;;;;;5025790;28;20080;-77
2022/07/26 02:25:36;;;;;;;15.65;3.85;;;18.10;99.90;;;;;;5037805;28;20072;-77
2022/07/26 02:28:02;;;;;;;12.90;4.18;;;18.10;99.90;;;;;;5027609;28;20080;-77
2022/07/26 02:30:28;;;;;;;11.32;3.35;;;18.10;99.90;;;;;;5025361;28;20042;-77
2022/07/26 02:32:53;;;;;;;14.27;3.90;;;18.10;99.90;;;;;;5022566;28;20053;-76
2022/07/26 02:35:21;;;;;;;13.77;3.55;;;18.10;99.90;;;;;;5026445;28;20040;-77
2022/07/26 02:37:49;;;;;;;17.15;4.05;;;18.10;99.90;;;;;;5023574;28;20030;-77
2022/07/26 02:40:15;;;;;;;14.77;3.60;;;18.20;99.90;;;;;;5024694;28;20037;-77
2022/07/26 02:42:42;;;;;;;10.63;3.38;;;18.20;99.90;;;;;;5037024;28;20132;-77
2022/07/26 02:45:09;;;;;;;12.27;3.58;;;18.10;99.90;;;;;;5028841;28;20041;-77
2022/07/26 02:47:48;;;;;;;11.75;3.67;;;18.20;99.90;;;;;;5019718;28;20033;-77
2022/07/26 02:50:16;;;;;;;12.88;4.75;;;18.20;99.90;;;;;;5025035;28;20067;-77
2022/07/26 02:52:42;;;;;;;13.38;3.25;;;18.20;99.90;;;;;;5022130;28;20041;-75
2022/07/26 02:55:08;;;;;;;10.50;2.95;;;18.20;99.90;;;;;;5016349;28;20049;-76
2022/07/26 02:57:34;;;;;;;11.70;3.83;;;18.20;99.90;;;;;;5035666;28;20478;-77
2022/07/26 03:00:00;;;;;;;10.90;3.15;;;18.20;99.90;;;;;;5034319;28;20048;-76
2022/07/26 03:02:25;;;;;;;12.50;3.92;;;18.20;99.90;;;;;;5027184;28;20030;-77
2022/07/26 03:04:51;;;;;;;15.52;4.07;;;18.20;99.90;;;;;;5029510;28;20127;-76
2022/07/26 03:07:17;;;;;;;11.95;3.15;;;18.10;99.90;;;;;;5021371;28;20094;-76
2022/07/26 03:09:42;;;;;;;10.52;3.50;;;18.20;99.90;;;;;;5023728;28;20045;-77
2022/07/26 03:12:11;;;;;;;10.82;3.67;;;18.20;99.90;;;;;;5016942;28;20053;-76
2022/07/26 03:14:36;;;;;;;10.85;3.35;;;18.20;99.90;;;;;;5028004;28;20034;-77
2022/07/26 03:17:02;;;;;;;10.82;3.60;;;18.20;99.90;;;;;;5035650;28;20386;-77
2022/07/26 03:19:28;;;;;;;10.32;3.33;;;18.30;99.90;;;;;;5027314;28;20045;-77
2022/07/26 03:21:53;;;;;;;13.07;3.50;;;18.30;99.90;;;;;;5017388;28;20047;-77
2022/07/26 03:24:19;;;;;;;11.90;2.95;;;18.30;99.90;;;;;;5046157;28;20045;-77
2022/07/26 03:26:44;;;;;;;9.95;3.67;;;18.30;99.90;;;;;;5023992;28;20067;-77
2022/07/26 03:29:10;;;;;;;15.68;3.38;;;18.30;99.90;;;;;;5024475;28;20039;-77
2022/07/26 03:31:36;;;;;;;12.13;3.40;;;18.30;99.90;;;;;;5024101;28;20111;-77
2022/07/26 03:34:01;;;;;;;8.45;3.20;;;18.30;99.90;;;;;;5022562;28;20046;-77
2022/07/26 03:36:27;;;;;;;9.98;3.80;;;18.30;99.90;;;;;;5029950;28;20536;-77
2022/07/26 03:38:52;;;;;;;11.05;3.63;;;18.30;99.90;;;;;;5022701;28;20073;-77
2022/07/26 03:41:18;;;;;;;9.23;3.60;;;18.30;99.90;;;;;;5025428;28;20107;-77
2022/07/26 03:43:44;;;;;;;11.35;3.28;;;18.30;99.90;;;;;;5012060;28;20097;-77
2022/07/26 03:46:10;;;;;;;15.52;4.47;;;18.40;99.90;;;;;;5017684;28;20479;-77
2022/07/26 03:48:35;;;;;;;10.20;3.47;;;18.20;99.90;;;;;;5027023;28;20044;-76
2022/07/26 03:51:04;;;;;;;6.05;2.40;;;18.20;99.90;;;;;;5037753;28;20101;-76
2022/07/26 03:53:30;;;;;;;5.28;2.60;;;18.20;99.90;;;;;;5033231;28;20037;-76
2022/07/26 03:58:40;;;;;;;5.28;2.58;;;18.20;99.90;;;;;;5031204;28;20048;-76
2022/07/26 04:01:06;;;;;;;6.63;2.78;;;18.00;99.90;;;;;;5043666;28;20108;-76
2022/07/26 04:03:34;;;;;;;4.63;2.60;;;18.10;99.90;;;;;;5045276;28;20013;-76
2022/07/26 04:06:00;;;;;;;4.25;1.88;;;18.10;99.90;;;;;;5047151;28;20037;-77
2022/07/26 04:08:25;;;;;;;6.03;2.08;;;18.20;99.90;;;;;;5056080;28;20037;-76
2022/07/26 04:10:51;;;;;;;5.68;2.40;;;18.10;99.90;;;;;;5031409;28;20109;-76
2022/07/26 04:13:18;;;;;;;6.25;2.60;;;18.10;99.90;;;;;;5036687;28;20033;-77
2022/07/26 04:15:43;;;;;;;3.35;1.60;;;18.10;99.90;;;;;;5042195;28;20042;-76
2022/07/26 04:18:13;;;;;;;3.63;1.98;;;18.10;99.90;;;;;;5035445;28;20068;-76
2022/07/26 04:20:39;;;;;;;5.47;2.03;;;18.30;99.90;;;;;;5039290;28;20037;-76
2022/07/26 04:23:04;;;;;;;6.88;2.08;;;18.10;99.90;;;;;;5035012;28;20501;-76
2022/07/26 04:25:30;;;;;;;5.13;2.33;;;18.10;99.90;;;;;;5041180;28;20040;-76
2022/07/26 04:27:56;;;;;;;7.05;2.03;;;18.20;99.90;;;;;;5038832;28;20387;-76
2022/07/26 04:30:22;;;;;;;5.47;1.90;;;18.10;99.90;;;;;;5038259;28;20068;-76
2022/07/26 04:32:47;;;;;;;6.93;2.03;;;18.20;99.90;;;;;;5032064;28;20046;-76
2022/07/26 04:35:14;;;;;;;6.13;2.40;;;18.30;99.90;;;;;;5030888;28;20038;-77
2022/07/26 04:37:41;;;;;;;5.75;2.50;;;18.20;99.90;;;;;;5035494;28;20042;-76
2022/07/26 04:40:10;;;;;;;4.28;1.88;;;18.20;99.90;;;;;;5017806;28;20042;-76
2022/07/26 04:42:36;;;;;;;5.43;2.35;;;18.20;99.90;;;;;;5038761;28;20099;-77
2022/07/26 04:45:03;;;;;;;8.15;2.20;;;18.20;99.90;;;;;;5043176;28;20099;-76
2022/07/26 04:47:29;;;;;;;5.35;1.92;;;18.50;99.90;;;;;;5047716;28;20474;-77
2022/07/26 04:49:55;;;;;;;4.80;2.30;;;18.10;99.90;;;;;;5033180;28;20037;-77
2022/07/26 04:52:21;;;;;;;5.07;2.35;;;18.20;99.90;;;;;;5027483;28;20044;-78
2022/07/26 04:54:46;;;;;;;4.97;2.15;;;18.10;99.90;;;;;;5031089;28;20104;-78
2022/07/26 04:57:12;;;;;;;5.75;2.28;;;18.10;99.90;;;;;;5031982;28;20048;-78
2022/07/26 04:59:38;;;;;;;5.80;2.28;;;18.20;99.90;;;;;;5029219;28;20458;-78
2022/07/26 05:02:04;;;;;;;7.40;2.85;;;18.20;99.90;;;;;;5027910;28;20103;-78
2022/07/26 05:04:29;;;;;;;4.18;1.73;;;18.20;99.90;;;;;;5022685;28;20034;-78
2022/07/26 05:07:01;;;;;;;5.63;2.70;;;18.30;99.90;;;;;;5040694;28;20050;-79
2022/07/26 05:09:27;;;;;;;4.45;1.75;;;18.30;99.90;;;;;;5022821;28;20053;-78
2022/07/26 05:11:53;;;;;;;7.68;1.90;;;18.30;99.90;;;;;;5020138;28;20050;-78
2022/07/26 05:14:21;;;;;;;2.83;1.83;;;18.30;99.90;;;;;;5024944;28;20392;-78
2022/07/26 05:16:47;;;;;;;6.35;2.10;;;18.30;99.90;;;;;;5022582;28;20107;-78
2022/07/26 05:19:13;;;;;;;5.15;2.00;;;18.30;99.90;;;;;;5028174;28;20046;-79
2022/07/26 05:21:39;;;;;;;4.55;1.88;;;18.30;99.90;;;;;;5026867;28;20382;-78
2022/07/26 05:24:05;;;;;;;4.75;2.13;;;18.30;99.90;;;;;;5022214;28;20045;-78
2022/07/26 05:26:31;;;;;;;4.00;1.80;;;18.30;99.90;;;;;;5022704;28;20072;-77
2022/07/26 05:28:57;;;;;;;3.97;1.77;;;18.30;99.90;;;;;;5007359;28;20033;-77
2022/07/26 05:31:23;;;;;;;6.22;1.75;;;18.30;99.90;;;;;;5025569;28;20033;-78
2022/07/26 05:33:52;;;;;;;5.40;1.85;;;18.40;99.90;;;;;;5027110;28;20495;-76
2022/07/26 05:36:18;;;;;;;6.22;1.75;;;18.40;99.90;;;;;;5005463;28;20234;-79
2022/07/26 05:38:48;;;;;;;5.75;1.90;;;18.40;99.90;;;;;;5029941;28;20049;-79
2022/07/26 05:41:14;;;;;;;3.42;1.55;;;18.40;99.90;;;;;;5013795;28;20120;-80
2022/07/26 05:43:40;;;;;;;5.00;1.50;;;18.50;99.90;;;;;;5019452;28;20172;-78
2022/07/26 05:46:08;;;;;;;8.13;1.60;;;18.50;99.90;;;;;;5012734;28;20230;-76
2022/07/26 05:48:34;;;;;;;4.57;1.75;;;18.60;99.90;;;;;;5021834;28;20045;-79
2022/07/26 05:50:59;;;;;;;4.25;1.42;;;18.60;99.90;;;;;;5029716;28;20049;-79
2022/07/26 05:53:25;;;;;;;5.35;1.48;;;18.60;99.90;;;;;;5030945;28;20037;-79
2022/07/26 05:55:51;;;;;;;7.80;1.65;;;18.60;99.90;;;;;;5019032;28;20066;-79
2022/07/26 05:58:17;;;;;;;6.90;1.52;;;18.50;99.90;;;;;;5023963;28;20486;-79
2022/07/26 06:00:42;;;;;;;5.32;1.20;;;18.50;99.90;;;;;;5010993;28;20037;-78
2022/07/26 06:03:23;;;;;;;3.50;1.20;;;18.40;99.90;;;;;;5040702;28;20037;-78
2022/07/26 06:05:50;;;;;;;6.50;1.60;;;18.40;99.90;;;;;;5015174;28;20120;-78
2022/07/26 06:08:16;;;;;;;5.32;1.58;;;18.30;99.90;;;;;;5038033;28;20604;-78
2022/07/26 06:10:42;;;;;;;7.22;1.60;;;18.30;99.90;;;;;;5027682;28;20113;-76
2022/07/26 06:13:08;;;;;;;6.18;1.30;;;18.40;99.90;;;;;;5016563;28;20124;-79
2022/07/26 06:15:33;;;;;;;2.85;1.05;;;18.30;99.90;;;;;;5027613;28;20151;-79
2022/07/26 06:17:59;;;;;;;5.18;1.27;;;18.40;99.90;;;;;;5003736;28;20041;-78
2022/07/26 06:20:27;;;;;;;5.60;1.50;;;18.30;99.90;;;;;;5027648;28;20124;-78
2022/07/26 06:22:53;;;;;;;2.45;1.08;;;18.60;99.90;;;;;;5012435;28;20052;-77
2022/07/26 06:25:18;;;;;;;7.05;1.50;;;18.40;99.90;;;;;;5021942;28;20045;-76
2022/07/26 06:27:44;;;;;;;2.35;1.20;;;18.40;99.90;;;;;;5017888;28;20041;-77
2022/07/26 06:30:13;;;;;;;4.65;1.20;;;18.50;99.90;;;;;;5022448;28;20034;-77
2022/07/26 06:32:40;;;;;;;2.40;0.98;;;18.50;99.90;;;;;;5022896;28;20068;-76
2022/07/26 06:35:06;;;;;;;4.85;1.13;;;18.50;99.90;;;;;;5002783;28;20044;-77
2022/07/26 06:37:35;;;;;;;3.45;1.20;;;18.50;99.90;;;;;;5030930;28;20037;-76
2022/07/26 06:40:01;;;;;;;4.35;1.13;;;18.60;99.90;;;;;;5017379;28;20456;-77
2022/07/26 06:42:26;;;;;;;4.07;1.08;;;18.60;99.90;;;;;;5028590;28;20042;-77
2022/07/26 06:44:52;;;;;;;3.63;0.95;;;18.60;99.90;;;;;;5025706;28;20046;-76
2022/07/26 06:47:18;;;;;;;3.72;1.00;;;18.60;99.90;;;;;;5033896;28;20048;-77
2022/07/26 06:49:43;;;;;;;4.30;1.10;;;18.60;99.90;;;;;;5034808;28;20065;-75
2022/07/26 06:52:11;;;;;;;5.38;1.42;;;18.60;99.90;;;;;;5049463;28;20508;-77
2022/07/26 06:54:37;;;;;;;3.58;0.88;;;18.60;99.90;;;;;;5011310;28;20075;-77
2022/07/26 06:57:03;;;;;;;3.58;0.98;;;18.60;99.90;;;;;;5035714;28;20066;-77
2022/07/26 06:59:28;;;;;;;5.60;1.02;;;18.60;99.90;;;;;;5015603;28;20037;-77
2022/07/26 07:01:54;;;;;;;5.63;1.10;;;18.60;99.90;;;;;;5031626;28;20040;-77
2022/07/26 07:04:19;;;;;;;2.53;1.10;;;18.70;99.90;;;;;;5024590;28;20042;-78
2022/07/26 07:06:45;;;;;;;5.70;0.80;;;18.70;99.90;;;;;;5019199;28;20041;-77
2022/07/26 07:09:11;;;;;;;3.90;1.33;;;18.70;99.90;;;;;;5019809;28;20498;-76
2022/07/26 07:11:36;;;;;;;3.55;1.27;;;18.70;99.90;;;;;;5019692;28;20084;-77
2022/07/26 07:14:02;;;;;;;2.90;0.80;;;18.70;99.90;;;;;;5012996;28;20052;-77
2022/07/26 07:16:28;;;;;;;5.75;1.00;;;18.70;99.90;;;;;;5026895;28;20045;-78
2022/07/26 07:18:54;;;;;;;5.47;1.25;;;18.70;99.90;;;;;;5021390;28;20116;-78
2022/07/26 07:21:19;;;;;;;5.03;1.10;;;18.60;99.90;;;;;;5014799;28;20133;-78
2022/07/26 07:23:45;;;;;;;3.25;0.98;;;18.60;99.90;;;;;;5004824;28;20494;-77
2022/07/26 07:26:11;;;;;;;2.28;0.90;;;18.60;99.90;;;;;;5023337;28;20083;-78
2022/07/26 07:28:39;;;;;;;5.65;1.30;;;18.70;99.90;;;;;;5022246;28;20068;-77
2022/07/26 07:31:05;;;;;;;2.45;1.05;;;18.70;99.90;;;;;;5012210;28;20068;-77
2022/07/26 07:33:31;;;;;;;4.00;0.98;;;18.80;99.90;;;;;;5026469;28;20124;-77
2022/07/26 07:35:56;;;;;;;5.05;1.10;;;18.70;99.90;;;;;;5036636;28;20037;-77
2022/07/26 07:38:22;;;;;;;4.22;0.93;;;18.80;99.90;;;;;;5032728;28;20030;-77
2022/07/26 07:40:48;;;;;;;5.70;1.10;;;18.80;99.90;;;;;;5036176;28;20120;-76
2022/07/26 07:43:15;;;;;;;4.05;0.90;;;18.90;99.90;;;;;;5027182;28;20065;-76
2022/07/26 07:45:43;;;;;;;3.30;0.95;;;19.00;99.90;;;;;;5040734;28;20045;-76
2022/07/26 07:48:09;;;;;;;3.63;1.23;;;19.00;99.90;;;;;;5021781;28;20029;-76
2022/07/26 07:50:34;;;;;;;4.28;0.98;;;19.00;99.90;;;;;;5034654;28;20025;-76
2022/07/26 07:53:03;;;;;;;3.03;0.82;;;19.00;99.90;;;;;;5025862;28;20037;-77
2022/07/26 07:55:29;;;;;;;2.58;0.90;;;19.00;99.90;;;;;;5024101;28;20041;-76
2022/07/26 07:57:54;;;;;;;4.25;1.10;;;19.10;99.90;;;;;;5045978;28;20044;-76
2022/07/26 08:00:22;;;;;;;3.38;0.90;;;19.10;99.90;;;;;;5038108;28;20409;-76
2022/07/26 08:02:48;;;;;;;3.30;0.93;;;19.10;99.90;;;;;;5034538;28;20162;-76
2022/07/26 08:05:14;;;;;;;6.80;1.13;;;19.10;99.90;;;;;;5031785;28;20038;-76
2022/07/26 08:07:39;;;;;;;1.73;0.82;;;19.10;99.90;;;;;;5027983;28;20043;-77
2022/07/26 08:10:06;;;;;;;1.02;0.55;;;19.00;99.90;;;;;;5024080;28;20033;-76
2022/07/26 08:12:32;;;;;;;4.53;1.00;;;19.10;99.90;;;;;;5027781;28;20055;-76
2022/07/26 08:14:59;;;;;;;3.53;0.70;;;19.10;99.90;;;;;;5012773;28;20116;-77
2022/07/26 08:17:24;;;;;;;2.70;0.75;;;19.20;99.90;;;;;;5039327;28;20150;-77
2022/07/26 08:19:50;;;;;;;2.15;0.82;;;19.30;99.90;;;;;;5036036;28;20040;-77
2022/07/26 08:22:15;;;;;;;5.72;1.13;;;19.30;99.90;;;;;;5037168;28;20422;-77
2022/07/26 08:24:44;;;;;;;2.75;0.90;;;19.40;99.90;;;;;;5025160;28;20097;-77
2022/07/26 08:27:10;;;;;;;1.73;0.50;;;19.40;99.90;;;;;;5042074;28;20041;-77
2022/07/26 08:29:35;;;;;;;4.18;0.93;;;19.50;99.90;;;;;;5014707;28;20026;-77
2022/07/26 08:32:01;;;;;;;3.30;0.90;;;19.50;99.90;;;;;;5040347;28;20106;-76
2022/07/26 08:34:27;;;;;;;5.47;1.13;;;19.50;99.90;;;;;;5030418;28;20042;-77
2022/07/26 08:36:52;;;;;;;2.45;0.90;;;19.50;99.90;;;;;;5034325;28;20504;-77
2022/07/26 08:39:18;;;;;;;4.35;0.95;;;19.70;99.90;;;;;;5027199;28;20049;-77
2022/07/26 08:41:43;;;;;;;2.55;0.70;;;19.80;99.90;;;;;;5033717;28;20042;-78
2022/07/26 08:44:10;;;;;;;2.67;0.90;;;20.00;99.90;;;;;;5051626;28;20041;-77
2022/07/26 08:46:40;;;;;;;3.67;0.90;;;20.00;99.90;;;;;;5025727;28;20114;-79
2022/07/26 08:49:08;;;;;;;5.90;0.90;;;20.00;99.90;;;;;;5035972;28;20108;-79
2022/07/26 08:51:43;;;;;;;3.05;1.00;;;20.00;99.90;;;;;;5035743;28;20077;-77
2022/07/26 08:54:14;;;;;;;3.25;0.88;;;20.10;99.90;;;;;;5032036;28;20547;-78
2022/07/26 08:56:48;;;;;;;4.93;1.40;;;20.40;99.90;;;;;;5027479;28;20065;-77
2022/07/26 08:59:15;;;;;;;2.97;0.85;;;20.70;99.90;;;;;;5024687;28;20060;-78
2022/07/26 09:01:58;;;;;;;3.17;1.10;;;21.10;99.90;;;;;;5026627;28;20038;-78
2022/07/26 09:04:29;;;;;;;4.82;1.00;;;21.20;99.90;;;;;;5020468;28;20077;-78
2022/07/26 09:07:05;;;;;;;3.17;1.08;;;21.10;99.90;;;;;;5022104;28;20037;-76
2022/07/26 09:09:33;;;;;;;6.07;1.52;;;21.00;99.90;;;;;;5026372;28;20055;-77
2022/07/26 09:12:13;;;;;;;4.20;1.10;;;20.80;99.90;;;;;;5025525;28;20096;-76
2022/07/26 09:14:39;;;;;;;3.60;1.10;;;20.60;99.90;;;;;;5027865;28;20037;-77
2022/07/26 09:17:05;;;;;;;3.67;1.00;;;20.40;99.90;;;;;;5057683;28;20037;-77
2022/07/26 09:19:31;;;;;;;7.78;1.20;;;20.20;99.90;;;;;;5033808;28;20454;-77
2022/07/26 09:22:12;;;;;;;5.45;1.30;;;20.20;99.90;;;;;;5014552;28;20075;-77
2022/07/26 09:24:46;;;;;;;3.90;1.27;;;20.10;99.90;;;;;;5045686;28;20132;-77
2022/07/26 09:27:17;;;;;;;5.30;1.63;;;20.20;99.90;;;;;;5023577;28;20033;-77
2022/07/26 09:29:49;;;;;;;4.65;1.00;;;20.40;99.90;;;;;;5022155;28;20043;-76
2022/07/26 09:32:18;;;;;;;4.53;1.02;;;20.80;99.90;;;;;;5023662;28;20495;-76
2022/07/26 09:34:47;;;;;;;3.50;1.10;;;21.10;99.90;;;;;;5018043;28;20049;-76
2022/07/26 09:37:13;;;;;;;4.10;1.15;;;21.30;99.90;;;;;;5040660;28;20103;-77
2022/07/26 09:39:57;;;;;;;3.83;1.40;;;21.50;99.90;;;;;;5015356;28;20498;-76
2022/07/26 09:42:23;;;;;;;4.07;1.13;;;21.70;99.90;;;;;;5018290;28;20518;-76
2022/07/26 09:44:50;;;;;;;4.13;1.23;;;21.70;99.90;;;;;;5016055;28;20052;-77
2022/07/26 09:47:16;;;;;;;5.90;1.30;;;21.70;99.90;;;;;;5029121;28;20038;-77
2022/07/26 09:49:42;;;;;;;6.30;1.40;;;21.70;99.90;;;;;;5018018;28;20030;-76
2022/07/26 09:52:20;;;;;;;6.05;1.75;;;21.70;99.90;;;;;;5022673;28;20060;-76
2022/07/26 09:54:48;;;;;;;6.90;1.50;;;21.70;99.90;;;;;;5033984;28;20445;-76
2022/07/26 09:57:19;;;;;;;6.03;1.50;;;21.60;99.90;;;;;;5020914;28;20401;-78
2022/07/26 09:59:45;;;;;;;4.50;1.20;;;21.50;99.90;;;;;;5024453;28;20052;-77
2022/07/26 10:02:12;;;;;;;4.00;1.40;;;21.40;99.90;;;;;;5016912;28;20038;-77
2022/07/26 10:04:46;;;;;;;3.45;1.25;;;21.20;99.90;;;;;;5021498;28;20049;-78
2022/07/26 10:07:13;;;;;;;6.25;1.42;;;21.10;99.90;;;;;;5024410;28;20052;-77
2022/07/26 10:09:56;;;;;;;5.03;1.50;;;20.90;99.90;;;;;;5017936;28;20410;-77
2022/07/26 10:12:26;;;;;;;5.13;1.30;;;20.80;99.90;;;;;;5009472;28;20056;-77
2022/07/26 10:14:54;;;;;;;3.60;1.10;;;20.70;99.90;;;;;;5017580;28;20099;-80
2022/07/26 10:17:28;;;;;;;3.60;1.23;;;20.50;99.90;;;;;;5018258;28;20039;-77
2022/07/26 10:20:06;;;;;;;4.47;1.30;;;20.50;99.90;;;;;;5022467;28;20120;-76
2022/07/26 10:22:43;;;;;;;5.30;1.50;;;20.50;99.90;;;;;;5024700;28;20486;-78
2022/07/26 10:25:18;;;;;;;4.45;1.40;;;20.60;99.90;;;;;;5031368;28;20378;-77
2022/07/26 10:27:56;;;;;;;6.35;1.50;;;20.70;99.90;;;;;;5020334;28;20092;-77
2022/07/26 10:30:24;;;;;;;5.55;1.33;;;21.10;99.90;;;;;;5010581;28;20506;-77
2022/07/26 10:32:52;;;;;;;6.70;1.67;;;21.30;99.90;;;;;;5023058;28;20398;-77
2022/07/26 10:35:31;;;;;;;;;;;21.40;99.90;;;;;;5011117;28;20037;-78
2022/07/26 10:38:02;;;;;;;5.22;1.30;;;21.40;99.90;;;;;;5020313;28;19948;-76
2022/07/26 10:40:31;;;;;;;5.90;1.57;;;21.40;99.90;;;;;;5030285;28;20048;-76
2022/07/26 10:43:13;;;;;;;6.97;1.58;;;21.40;99.90;;;;;;5027418;28;20049;-76
2022/07/26 10:45:39;;;;;;;;;;;21.20;99.90;;;;;;5035987;28;20069;-76
2022/07/26 10:48:14;;;;;;;9.05;2.28;;;21.10;99.90;;;;;;5035000;28;19921;-76
2022/07/26 10:50:42;;;;;;;9.52;1.77;;;21.00;99.90;;;;;;5019402;28;20073;-77
2022/07/26 10:53:10;;;;;;;6.15;1.70;;;20.90;99.90;;;;;;5023423;28;20476;-77
2022/07/26 10:55:50;;;;;;;5.82;2.13;;;20.80;99.90;;;;;;5017414;28;20045;-77
2022/07/26 10:58:16;;;;;;;6.40;2.00;;;20.70;99.90;;;;;;5004356;28;20110;-77
2022/07/26 11:01:03;;;;;;;8.95;2.65;;;20.60;99.90;;;;;;5031155;28;20049;-76
2022/07/26 11:03:41;;;;;;;9.18;2.00;;;20.60;99.90;;;;;;5026150;28;20045;-77
2022/07/26 11:06:16;;;;;;;7.47;1.83;;;20.50;99.90;;;;;;5042456;28;20591;-77
2022/07/26 11:08:45;;;;;;;6.70;1.80;;;20.50;99.90;;;;;;5027058;28;20426;-77
2022/07/26 11:11:11;;;;;;;9.13;2.15;;;20.50;99.90;;;;;;5039421;28;20049;-76
2022/07/26 11:13:37;;;;;;;6.97;1.52;;;20.60;99.90;;;;;;5017989;28;20036;-77
2022/07/26 11:16:06;;;;;;;7.07;1.92;;;20.60;99.90;;;;;;5038910;28;20047;-77
2022/07/26 11:18:35;;;;;;;8.15;1.70;;;20.70;99.90;;;;;;5024479;28;20038;-77
2022/07/26 11:21:15;;;;;;;4.18;1.50;;;20.80;99.90;;;;;;5014819;28;20044;-77
2022/07/26 11:23:46;;;;;;;3.67;1.30;;;21.00;99.90;;;;;;5028408;28;20637;-77
2022/07/26 11:26:16;;;;;;;6.57;1.70;;;21.20;99.90;;;;;;5021309;28;20044;-77
2022/07/26 11:28:56;;;;;;;6.93;2.00;;;21.20;99.90;;;;;;5023891;28;20112;-77
2022/07/26 11:31:32;;;;;;;7.18;1.63;;;21.20;99.90;;;;;;5025348;28;20116;-77
2022/07/26 11:33:58;;;;;;;8.70;1.90;;;21.10;99.90;;;;;;5016352;28;20107;-77
2022/07/26 11:36:35;;;;;;;9.05;2.05;;;21.00;99.90;;;;;;5023961;28;20034;-77
2022/07/26 11:39:04;;;;;;;7.55;1.85;;;20.90;99.90;;;;;;5022315;28;20100;-76
2022/07/26 11:41:31;;;;;;;7.70;2.17;;;20.80;99.90;;;;;;5018792;28;20076;-77
2022/07/26 11:43:58;;;;;;;10.27;1.85;;;20.70;99.90;;;;;;5025925;28;20713;-76
2022/07/26 11:46:33;;;;;;;8.65;1.95;;;20.70;99.90;;;;;;5019967;28;20045;-76
2022/07/26 11:48:59;;;;;;;7.68;1.80;;;20.80;99.90;;;;;;5046271;28;20096;-76
2022/07/26 11:51:25;;;;;;;5.78;2.25;;;20.80;99.90;;;;;;5022395;28;20048;-77
2022/07/26 11:53:58;;;;;;;6.75;1.80;;;21.00;99.90;;;;;;5029868;28;20044;-76
2022/07/26 11:56:26;;;;;;;7.07;1.67;;;21.00;99.90;;;;;;5026645;28;20064;-76
2022/07/26 11:58:55;;;;;;;6.93;1.73;;;21.00;99.90;;;;;;5025795;28;20516;-77
2022/07/26 12:01:23;;;;;;;8.10;1.65;;;21.00;99.90;;;;;;5015571;28;20042;-76
2022/07/26 12:03:52;;;;;;;6.65;1.92;;;21.00;99.90;;;;;;5021950;28;20037;-76
2022/07/26 12:06:21;;;;;;;7.88;2.00;;;21.00;99.90;;;;;;5027805;28;20076;-76
2022/07/26 12:08:55;;;;;;;5.32;1.77;;;21.00;99.90;;;;;;5019259;28;20517;-76
2022/07/26 12:11:23;;;;;;;9.38;1.88;;;21.10;99.90;;;;;;5034063;28;20396;-76
2022/07/26 12:14:00;;;;;;;3.78;1.55;;;21.20;99.90;;;;;;5017023;28;20134;-76
2022/07/26 12:16:43;;;;;;;7.93;1.83;;;21.20;99.90;;;;;;5029663;28;20056;-76
2022/07/26 12:19:18;;;;;;;6.57;1.88;;;21.20;99.60;;;;;;5032293;28;20042;-77
2022/07/26 12:21:51;;;;;;;7.82;1.77;;;21.20;99.50;;;;;;5029618;28;20509;-76
2022/07/26 12:24:40;;;;;;;7.18;1.73;;;21.30;99.70;;;;;;5032888;28;20053;-77
2022/07/26 12:27:11;;;;;;;6.57;1.80;;;21.40;99.40;;;;;;5005876;28;20046;-77
2022/07/26 12:29:40;;;;;;;5.85;1.60;;;21.60;99.30;;;;;;5027941;28;20060;-77
2022/07/26 12:32:30;;;;;;;5.43;1.73;;;21.70;99.20;;;;;;5030140;28;20124;-77
2022/07/26 12:35:14;;;;;;;7.38;1.60;;;21.90;98.30;;;;;;5018910;28;20502;-75
2022/07/26 12:37:50;;;;;;;6.57;1.70;;;22.20;98.80;;;;;;5032366;28;20045;-78
2022/07/26 12:40:27;;;;;;;5.50;1.45;;;22.30;98.50;;;;;;5016913;28;20490;-77
2022/07/26 12:42:56;;;;;;;7.85;1.60;;;22.40;98.00;;;;;;5026570;28;20120;-76
2022/07/26 12:45:26;;;;;;;4.53;1.23;;;22.40;98.00;;;;;;5001031;28;20076;-76
2022/07/26 12:47:55;;;;;;;8.77;1.88;;;22.50;97.40;;;;;;5018801;28;20037;-77
2022/07/26 12:50:23;;;;;;;4.68;1.60;;;22.50;97.10;;;;;;5023720;28;20054;-76
2022/07/26 12:52:49;;;;;;;4.20;1.50;;;22.80;97.20;;;;;;5015270;28;20042;-76
2022/07/26 12:55:18;;;;;;;6.95;1.60;;;22.80;96.70;;;;;;5021888;28;20116;-77